• Join FlightAware (Why Join?)
  • Login
  • US Flag 
03:13PM EDT


 

Airport Tracker/Info


-or-


 

Live Flight TrackerFlight Track Log ✈ SKW5550 ✈ 21-Oct-2013 ✈ KCOD - KDEN

Flight Track Log - Related Links

Times and Time Zones

All times are in EDT time to prevent confusion due to time zone crossing. See the SKW5550 flight status page for this flight to view local times or setup timezone preferences in your user account.

Time Position Orientation Groundspeed Altitude Reporting Facility
EDT Latitude Longitude Course Direction KTS MPH feet Rate Location/Type
09:54AM 44.5069 -109.0514 166° South 157 181 6,000  Level Salt Lake Center
09:55AM 43.9935 -108.4900 157° South  Level Estimated
09:55AM 44.4603 -109.0686 195° South 242 278 7,800  Level Salt Lake Center
09:56AM 43.8920 -108.3885 164° South  Level Estimated
09:56AM 44.4489 -108.9881 101° East 240 276 10,600  Level Salt Lake Center
09:57AM 43.7696 -108.3531 168° South  Level FlightAware Approximate
09:57AM 44.4933 -108.9278 44° Northeast 231 266 12,800  Level Salt Lake Center
09:58AM 43.6687 -108.2507 164° South  Level Estimated
09:58AM 44.4506 -108.8250 120° Southeast 293 337 14,200  Level Salt Lake Center
09:59AM 43.5677 -108.1487 166° South  Level Estimated
09:59AM 44.3742 -108.7436 143° Southeast 342 394 16,000  Level Salt Lake Center
10:00AM 44.2969 -108.6561 141° Southeast 354 407 17,700 1,560 Climbing Salt Lake Center
10:01AM 44.1986 -108.5439 141° Southeast 373 429 19,200 1,500 Climbing Salt Lake Center
10:02AM 44.1128 -108.4467 141° Southeast 390 449 20,800 1,440 Climbing Salt Lake Center
10:03AM 44.0247 -108.3489 141° Southeast 401 461 22,200 1,320 Climbing Salt Lake Center
10:04AM 43.9367 -108.2492 141° Southeast 410 472 23,500 1,200 Climbing Salt Lake Center
10:05AM 43.8469 -108.1478 141° Southeast 417 480 24,700 1,020 Climbing Salt Lake Center
10:06AM 43.7556 -108.0461 141° Southeast 422 486 25,700 900 Climbing Salt Lake Center
10:07AM 43.6617 -107.9422 141° Southeast 432 497 26,600 840 Climbing Salt Lake Center
10:08AM 43.5664 -107.8361 141° Southeast 440 506 27,500 780 Climbing Salt Lake Center
10:09AM 43.4694 -107.7297 141° Southeast 446 513 28,300 840 Climbing Salt Lake Center
10:10AM 43.3514 -107.6006 141° Southeast 455 524 29,300 840 Climbing Salt Lake Center
10:11AM 43.2536 -107.4950 142° Southeast 450 518 30,100 600 Climbing Salt Lake Center
10:12AM 43.1550 -107.3864 141° Southeast 454 522 30,600 420 Climbing Salt Lake Center
10:13AM 43.0531 -107.2767 142° Southeast 465 535 31,000 180 Climbing Salt Lake Center
10:15AM 42.9492 -107.1650 142° Southeast 475 547 31,000  Level Salt Lake Center
10:15AM 42.8486 -107.0550 141° Southeast 489 563 31,000  Level Denver Center
10:16AM 42.7439 -106.9428 142° Southeast 500 575 31,000  Level Denver Center
10:17AM 42.6194 -106.8119 142° Southeast 507 583 31,000  Level Denver Center
10:18AM 42.5136 -106.6997 142° Southeast 507 583 31,000  Level Denver Center
10:20AM 42.3900 -106.5706 142° Southeast 504 580 31,000  Level Denver Center
10:21AM 42.2847 -106.4608 142° Southeast 502 578 31,000  Level Denver Center
10:22AM 42.1628 -106.3333 142° Southeast 500 575 31,000  Level Denver Center
10:23AM 42.0578 -106.2253 143° Southeast 498 573 31,000  Level Denver Center
10:24AM 41.9547 -106.1194 143° Southeast 494 568 31,000  Level Denver Center
10:25AM 41.8328 -106.0039 145° Southeast 490 564 31,000  Level Denver Center
10:26AM 41.7094 -105.9419 159° South 496 571 31,000  Level Denver Center
10:27AM 41.5653 -105.8775 162° South 491 565 31,000  Level Denver Center
10:28AM 41.4431 -105.8228 161° South 487 560 31,000  Level Denver Center
10:29AM 41.2992 -105.7564 161° South 490 564 31,000  Level Denver Center
10:30AM 41.1772 -105.7031 162° South 486 559 31,000  Level Denver Center
10:31AM 41.0339 -105.6381 161° South 487 560 31,000  Level Denver Center
10:32AM 40.9278 -105.5706 154° Southeast 481 554 31,000 -1,740 Level Denver Center
10:33AM 40.8117 -105.4808 150° Southeast 482 555 27,500 -4,020 Descending Denver Center
10:34AM 40.6769 -105.3794 150° Southeast 467 537 22,700 -4,260 Descending Denver Center
10:35AM 40.5756 -105.2992 149° Southeast 433 498 18,800 -3,000 Descending Denver Center
10:36AM 40.4861 -105.2267 148° Southeast 385 443 16,500 -1,860 Descending Denver Center
10:37AM 40.4006 -105.1533 147° Southeast 343 395 15,000 -1,440 Descending Denver Center
10:38AM 40.3578 -105.0597 121° Southeast 318 366 13,600 -1,020 Descending Denver Center
10:39AM 40.3517 -104.9553 94° East 290 334 13,000 -840 Descending Denver Center
10:40AM 40.3394 -104.8528 99° East 270 311 11,900 -1,260 Descending Denver Center
10:41AM 40.2992 -104.7786 125° Southeast 275 316 10,400 -960 Descending Denver Center
10:42AM 40.2281 -104.7317 153° Southeast 268 308 10,000 -300 Descending Denver Center
10:43AM 40.1600 -104.6928 156° South 267 307 9,800 -720 Descending Denver Center
10:44AM 40.0869 -104.6942 181° South 259 298 8,600 -1,020 Descending Denver Center
10:45AM 40.0139 -104.6936 180° South 244 281 7,700 -960 Descending Denver Center
10:46AM 39.9586 -104.6956 182° South 205 236 6,700 -1,020 Descending Denver Center
10:47AM 39.9144 -104.6958 180° South 148 170 5,700 -720 Descending Denver Center
10:48AM 39.8814 -104.6956 180° South 125 144 5,300 -420 Descending Denver Center